Time;durP1;ratioP1;P1;durP2;ratioP2;P2;SDS_P1;SDS_P2;PMS_P1;PMS_P2;Temp;Humidity;BMP_temperature;BMP_pressure;BME280_temperature;BME280_humidity;BME280_pressure;Samples;Min_cycle;Max_cycle;Signal;HPM_P1;HPM_P2
2023/03/08 00:00:32;;;;;;;6.23;3.70;;;-0.40;99.90;;;;;;5157017;27;20050;-79
2023/03/08 00:02:58;;;;;;;5.35;2.97;;;-1.30;99.90;;;;;;5157096;27;20053;-78
2023/03/08 00:05:24;;;;;;;5.90;2.85;;;-1.30;99.90;;;;;;5156954;27;20397;-78
2023/03/08 00:07:52;;;;;;;5.13;2.70;;;-1.30;99.90;;;;;;5156799;27;20366;-78
2023/03/08 00:10:18;;;;;;;4.20;2.75;;;-1.30;99.90;;;;;;5156515;27;20501;-78
2023/03/08 00:12:44;;;;;;;4.13;2.75;;;-1.30;99.90;;;;;;5156405;27;20035;-78
2023/03/08 00:15:09;;;;;;;5.50;2.80;;;0.40;99.90;;;;;;5155591;27;20052;-78
2023/03/08 00:17:37;;;;;;;5.28;3.13;;;-1.30;99.90;;;;;;5156722;27;20049;-78
2023/03/08 00:20:07;;;;;;;4.28;2.67;;;-1.40;99.90;;;;;;5155289;27;20042;-78
2023/03/08 00:22:39;;;;;;;3.42;2.67;;;-1.40;99.90;;;;;;5156768;27;20039;-78
2023/03/08 00:25:07;;;;;;;8.23;2.83;;;-1.40;99.90;;;;;;5155493;27;20045;-79
2023/03/08 00:27:34;;;;;;;5.15;2.92;;;-1.40;99.90;;;;;;5156527;27;20383;-78
2023/03/08 00:29:59;;;;;;;5.65;3.10;;;-1.40;99.90;;;;;;5156619;27;20096;-79
2023/03/08 00:32:26;;;;;;;4.63;2.80;;;-1.80;99.90;;;;;;5156398;27;20461;-78
2023/03/08 00:34:52;;;;;;;4.75;2.97;;;-1.60;99.90;;;;;;5156012;27;20142;-78
2023/03/08 00:37:18;;;;;;;3.67;2.80;;;-1.40;99.90;;;;;;5156072;27;20043;-78
2023/03/08 00:39:43;;;;;;;4.30;3.13;;;-1.40;99.90;;;;;;5156249;27;20122;-78
2023/03/08 00:42:09;;;;;;;4.45;2.95;;;-1.40;99.90;;;;;;5156393;27;20133;-78
2023/03/08 00:44:35;;;;;;;6.28;3.42;;;;;;;;;;5156063;27;20038;-78
2023/03/08 00:47:01;;;;;;;7.50;3.33;;;-1.40;99.90;;;;;;5156117;27;20081;-78
2023/03/08 00:49:26;;;;;;;5.93;3.30;;;-1.50;99.90;;;;;;5155765;27;20050;-78
2023/03/08 00:51:52;;;;;;;4.97;3.28;;;-1.40;99.90;;;;;;5155944;27;20035;-78
2023/03/08 00:54:17;;;;;;;4.78;3.40;;;-1.40;99.90;;;;;;5156005;27;20049;-78
2023/03/08 00:56:43;;;;;;;4.88;3.63;;;-1.50;99.90;;;;;;5155780;27;20133;-78
2023/03/08 00:59:08;;;;;;;6.88;3.67;;;-0.80;99.90;;;;;;5155812;27;20057;-78
2023/03/08 01:01:34;;;;;;;5.97;3.65;;;-1.50;99.90;;;;;;5155885;27;20385;-78
2023/03/08 01:04:01;;;;;;;5.07;3.50;;;-1.50;99.90;;;;;;5154470;27;20043;-78
2023/03/08 01:06:26;;;;;;;6.13;3.75;;;-1.50;99.90;;;;;;5154776;27;20043;-78
2023/03/08 01:08:52;;;;;;;6.45;4.05;;;-1.60;99.90;;;;;;5155791;27;20045;-79
2023/03/08 01:11:23;;;;;;;8.50;4.03;;;-1.70;99.90;;;;;;5155793;27;20046;-78
2023/03/08 01:13:50;;;;;;;5.63;3.83;;;-1.60;99.90;;;;;;5154655;27;20402;-78
2023/03/08 01:16:20;;;;;;;5.75;4.25;;;-1.60;99.90;;;;;;5155638;27;20061;-78
2023/03/08 01:18:47;;;;;;;6.05;4.20;;;-1.60;99.90;;;;;;5155969;27;20758;-78
2023/03/08 01:21:12;;;;;;;5.22;3.72;;;-0.90;99.90;;;;;;5155578;27;20050;-78
2023/03/08 01:23:38;;;;;;;5.07;3.70;;;-1.60;99.90;;;;;;5155476;27;20074;-78
2023/03/08 01:26:07;;;;;;;10.82;4.00;;;-1.60;99.90;;;;;;5155551;27;20595;-78
2023/03/08 01:28:33;;;;;;;6.65;4.00;;;-1.60;99.90;;;;;;5155453;27;20053;-78
2023/03/08 01:31:08;;;;;;;5.57;4.13;;;-1.60;99.90;;;;;;5155457;27;20047;-78
2023/03/08 01:33:34;;;;;;;9.00;4.68;;;-1.60;99.90;;;;;;5155136;27;20501;-77
2023/03/08 01:36:03;;;;;;;5.97;4.50;;;-1.60;99.90;;;;;;5155284;27;20133;-77
2023/03/08 01:38:29;;;;;;;7.43;4.25;;;-1.60;99.90;;;;;;5155184;27;20066;-77
2023/03/08 01:40:57;;;;;;;7.72;4.13;;;-1.60;99.90;;;;;;5155409;27;20467;-78
2023/03/08 01:43:31;;;;;;;7.47;4.85;;;-1.60;99.90;;;;;;5155260;27;20085;-77
2023/03/08 01:46:23;;;;;;;10.15;4.65;;;-1.50;99.90;;;;;;5155328;27;20104;-77
2023/03/08 01:48:58;;;;;;;8.40;5.10;;;-1.50;99.90;;;;;;5154644;27;20095;-77
2023/03/08 01:51:34;;;;;;;7.00;5.15;;;-1.40;99.90;;;;;;5155425;27;20094;-77
2023/03/08 01:54:04;;;;;;;8.88;5.18;;;-1.40;99.90;;;;;;5155255;27;20115;-77
2023/03/08 01:56:30;;;;;;;10.23;5.55;;;-1.30;99.90;;;;;;5153830;27;20507;-77
2023/03/08 01:58:57;;;;;;;8.38;5.55;;;-1.30;99.90;;;;;;5136995;27;20039;-78
2023/03/08 02:01:23;;;;;;;8.63;5.25;;;-1.30;99.90;;;;;;5155122;27;20080;-78
2023/03/08 02:03:49;;;;;;;10.47;5.37;;;-1.20;99.90;;;;;;5155048;27;20039;-78
2023/03/08 02:06:16;;;;;;;7.63;4.63;;;-1.30;99.90;;;;;;5155091;27;20042;-77
2023/03/08 02:08:43;;;;;;;10.13;5.72;;;-1.10;99.90;;;;;;5154856;27;20068;-78
2023/03/08 02:11:09;;;;;;;11.10;5.90;;;-1.30;99.90;;;;;;5155023;27;20049;-78
2023/03/08 02:13:35;;;;;;;11.07;6.05;;;-1.40;99.90;;;;;;5155077;27;20038;-79
2023/03/08 02:16:04;;;;;;;8.90;5.68;;;-1.40;99.90;;;;;;5155417;27;20043;-77
2023/03/08 02:18:29;;;;;;;8.68;5.60;;;-1.40;99.90;;;;;;5154888;27;20047;-77
2023/03/08 02:20:55;;;;;;;14.35;5.78;;;-1.40;99.90;;;;;;5155058;27;20167;-78
2023/03/08 02:23:23;;;;;;;10.38;5.80;;;-0.80;99.90;;;;;;5154530;27;20043;-77
2023/03/08 02:26:03;;;;;;;11.25;5.57;;;-1.50;99.90;;;;;;5155463;27;20038;-77
2023/03/08 02:28:31;;;;;;;8.43;5.82;;;-1.50;99.90;;;;;;5155448;27;20046;-78
2023/03/08 02:30:57;;;;;;;9.25;6.20;;;-1.50;99.90;;;;;;5153693;27;20121;-77
2023/03/08 02:33:23;;;;;;;9.85;6.00;;;-1.50;99.90;;;;;;5154863;27;20042;-78
2023/03/08 02:35:49;;;;;;;11.10;6.72;;;-1.50;99.90;;;;;;5155001;27;20437;-77
2023/03/08 02:38:17;;;;;;;9.93;6.43;;;-1.60;99.90;;;;;;5158381;27;20039;-77
2023/03/08 02:40:43;;;;;;;10.57;6.82;;;-1.60;99.90;;;;;;5158477;27;20053;-78
2023/03/08 02:43:08;;;;;;;10.25;6.10;;;-0.70;99.90;;;;;;5158982;27;20043;-77
2023/03/08 02:45:35;;;;;;;15.18;6.07;;;-1.60;99.90;;;;;;5158722;27;20034;-77
2023/03/08 02:48:02;;;;;;;10.55;6.50;;;-1.60;99.90;;;;;;5158598;27;20047;-77
2023/03/08 02:50:28;;;;;;;9.57;6.75;;;-0.70;99.90;;;;;;5158389;27;20492;-77
2023/03/08 02:52:54;;;;;;;7.70;6.18;;;-1.70;99.90;;;;;;5158876;27;20090;-77
2023/03/08 02:55:19;;;;;;;12.77;7.00;;;-1.60;99.90;;;;;;5158055;27;20137;-78
2023/03/08 02:57:45;;;;;;;9.30;6.30;;;-1.70;99.90;;;;;;5158253;27;20064;-78
2023/03/08 03:00:11;;;;;;;10.82;7.25;;;-1.30;99.90;;;;;;5158264;27;20064;-78
2023/03/08 03:02:37;;;;;;;10.75;7.18;;;-1.70;99.90;;;;;;5158045;27;20062;-77
2023/03/08 03:05:11;;;;;;;11.25;7.53;;;-1.70;99.90;;;;;;5158170;27;20047;-77
2023/03/08 03:07:39;;;;;;;13.05;7.50;;;-1.70;99.90;;;;;;5158160;27;20054;-77
2023/03/08 03:10:07;;;;;;;11.88;7.22;;;-1.70;99.90;;;;;;5157979;27;20095;-77
2023/03/08 03:12:32;;;;;;;12.10;7.70;;;-1.70;99.90;;;;;;5157992;27;20046;-78
2023/03/08 03:15:04;;;;;;;11.38;7.97;;;-1.40;99.90;;;;;;5156769;27;20035;-77
2023/03/08 03:17:30;;;;;;;14.18;7.55;;;-1.70;99.90;;;;;;5157860;27;20510;-77
2023/03/08 03:19:56;;;;;;;11.85;7.72;;;-1.70;99.90;;;;;;5157779;27;20043;-78
2023/03/08 03:22:22;;;;;;;15.25;8.68;;;-1.70;99.90;;;;;;5157768;27;20381;-78
2023/03/08 03:24:51;;;;;;;16.65;7.65;;;-1.70;99.90;;;;;;5157769;27;20042;-78
2023/03/08 03:27:18;;;;;;;14.20;8.80;;;-1.70;99.90;;;;;;5157953;27;20049;-78
2023/03/08 03:29:44;;;;;;;13.70;9.15;;;-1.30;99.90;;;;;;5157668;27;20395;-77
2023/03/08 03:32:10;;;;;;;11.35;8.27;;;-0.70;99.90;;;;;;5157424;27;20046;-76
2023/03/08 03:34:36;;;;;;;14.63;8.57;;;-1.80;99.90;;;;;;5157474;27;20047;-78
2023/03/08 03:37:02;;;;;;;13.88;9.07;;;-1.70;99.90;;;;;;5157500;27;20287;-77
2023/03/08 03:39:32;;;;;;;12.95;8.60;;;-1.70;99.90;;;;;;5157479;27;20085;-78
2023/03/08 03:41:58;;;;;;;13.43;8.63;;;-1.70;99.90;;;;;;5157385;27;20039;-77
2023/03/08 03:44:24;;;;;;;10.40;7.88;;;-1.70;99.90;;;;;;5157450;27;20106;-77
2023/03/08 03:46:50;;;;;;;12.07;8.20;;;-1.70;99.90;;;;;;5157320;27;20098;-77
2023/03/08 03:49:15;;;;;;;11.75;7.43;;;-1.70;99.90;;;;;;5156129;27;20054;-77
2023/03/08 03:51:41;;;;;;;12.48;7.90;;;-1.80;99.90;;;;;;5157495;27;20493;-77
2023/03/08 03:54:06;;;;;;;15.88;8.25;;;-1.70;99.90;;;;;;5157173;27;20035;-77
2023/03/08 03:56:32;;;;;;;10.52;7.75;;;-1.50;99.90;;;;;;5155984;27;20510;-78
2023/03/08 03:58:58;;;;;;;15.52;8.15;;;-1.80;99.90;;;;;;5157289;27;20035;-77
2023/03/08 04:01:26;;;;;;;13.48;8.35;;;-1.50;99.90;;;;;;5157106;27;20479;-77
2023/03/08 04:03:53;;;;;;;12.15;7.53;;;-1.90;99.90;;;;;;5156770;27;20562;-78
2023/03/08 04:06:30;;;;;;;10.93;7.90;;;-1.90;99.90;;;;;;5156893;27;20042;-78
2023/03/08 04:09:01;;;;;;;14.20;8.35;;;-1.90;99.90;;;;;;5156901;27;20049;-77
2023/03/08 04:11:30;;;;;;;13.88;7.75;;;-1.90;99.90;;;;;;5156867;27;20038;-78
2023/03/08 04:13:56;;;;;;;10.65;7.97;;;-1.90;99.90;;;;;;5156771;27;20038;-75
2023/03/08 04:16:25;;;;;;;14.07;8.40;;;-1.80;99.90;;;;;;5156740;27;20471;-78
2023/03/08 04:18:55;;;;;;;15.25;8.98;;;-1.40;99.90;;;;;;5156605;27;20532;-77
2023/03/08 04:21:22;;;;;;;14.25;8.95;;;-1.90;99.90;;;;;;5156215;27;20045;-76
2023/03/08 04:23:47;;;;;;;13.60;8.73;;;-1.40;99.90;;;;;;5156413;27;20113;-77
2023/03/08 04:26:14;;;;;;;14.77;8.57;;;-1.90;99.90;;;;;;5156517;27;20459;-77
2023/03/08 04:28:42;;;;;;;16.77;8.83;;;-1.90;99.90;;;;;;5156608;27;20040;-77
2023/03/08 04:31:17;;;;;;;14.52;8.60;;;-1.90;99.90;;;;;;5156360;27;20502;-78
2023/03/08 04:33:43;;;;;;;12.70;7.78;;;-1.90;99.90;;;;;;5156774;27;20034;-77
2023/03/08 04:36:09;;;;;;;12.23;8.77;;;-1.90;99.90;;;;;;5156030;27;20054;-75
2023/03/08 04:38:35;;;;;;;14.10;8.15;;;-1.90;99.90;;;;;;5156323;27;20067;-77
2023/03/08 04:41:01;;;;;;;12.37;7.77;;;-1.80;99.90;;;;;;5155071;27;20050;-76
2023/03/08 04:43:33;;;;;;;11.00;7.40;;;-1.80;99.90;;;;;;5156134;27;20078;-76
2023/03/08 04:46:00;;;;;;;11.82;7.55;;;-1.70;99.90;;;;;;5156402;27;20043;-76
2023/03/08 04:48:26;;;;;;;10.52;7.78;;;-1.80;99.90;;;;;;5156115;27;20500;-77
2023/03/08 04:50:57;;;;;;;13.75;8.32;;;-0.80;99.90;;;;;;5156217;27;20090;-76
2023/03/08 04:53:23;;;;;;;12.68;7.95;;;-1.90;99.90;;;;;;5155624;27;20093;-76
2023/03/08 04:55:50;;;;;;;14.30;7.72;;;-1.90;99.90;;;;;;5156076;27;20406;-76
2023/03/08 04:58:16;;;;;;;11.57;7.35;;;-1.90;99.90;;;;;;5155882;27;20039;-77
2023/03/08 05:00:42;;;;;;;8.57;6.50;;;-2.70;99.90;;;;;;5155791;27;20047;-77
2023/03/08 05:03:08;;;;;;;11.95;7.22;;;-2.50;99.90;;;;;;5155935;27;20121;-77
2023/03/08 05:05:33;;;;;;;8.93;6.78;;;-2.00;99.90;;;;;;5156174;27;20047;-77
2023/03/08 05:08:03;;;;;;;9.32;6.70;;;-2.10;99.90;;;;;;5157127;27;20043;-78
2023/03/08 05:10:29;;;;;;;9.35;6.65;;;-2.10;99.90;;;;;;5156554;27;20031;-77
2023/03/08 05:12:54;;;;;;;9.80;6.97;;;-0.70;99.90;;;;;;5156337;27;20045;-78
2023/03/08 05:15:22;;;;;;;8.68;6.30;;;-2.10;99.90;;;;;;5156204;27;20035;-77
2023/03/08 05:17:48;;;;;;;9.20;6.80;;;-2.00;99.90;;;;;;5155915;27;20057;-77
2023/03/08 05:20:14;;;;;;;9.70;6.97;;;-2.10;99.90;;;;;;5156188;27;20129;-77
2023/03/08 05:22:40;;;;;;;11.35;6.75;;;-2.10;99.90;;;;;;5137809;27;20146;-77
2023/03/08 05:25:05;;;;;;;11.68;6.90;;;-2.10;99.90;;;;;;5155967;27;20046;-77
2023/03/08 05:27:32;;;;;;;10.10;6.60;;;-2.10;99.90;;;;;;5155438;27;20078;-77
2023/03/08 05:29:58;;;;;;;8.75;6.55;;;-2.20;99.90;;;;;;5155582;27;20481;-78
2023/03/08 05:32:23;;;;;;;9.80;6.97;;;-1.70;99.90;;;;;;5155715;27;20041;-78
2023/03/08 05:34:51;;;;;;;10.13;6.78;;;-2.10;99.90;;;;;;5137520;27;20046;-78
2023/03/08 05:37:17;;;;;;;10.57;7.30;;;-1.40;99.90;;;;;;5137101;27;20485;-78
2023/03/08 05:39:42;;;;;;;12.02;7.30;;;-2.20;99.90;;;;;;5155555;27;20077;-78
2023/03/08 05:42:08;;;;;;;12.32;6.85;;;-2.20;99.90;;;;;;5155294;27;20041;-78
2023/03/08 05:44:34;;;;;;;9.60;6.70;;;-2.20;99.90;;;;;;5155488;27;20042;-77
2023/03/08 05:47:00;;;;;;;11.88;6.72;;;-2.30;99.90;;;;;;5155149;27;20599;-78
2023/03/08 05:49:26;;;;;;;12.60;7.15;;;-2.30;99.90;;;;;;5137026;27;20125;-78
2023/03/08 05:51:52;;;;;;;10.98;7.72;;;-2.30;99.90;;;;;;5155762;27;20385;-78
2023/03/08 05:54:18;;;;;;;12.57;7.35;;;-2.30;99.90;;;;;;5136981;27;20042;-78
2023/03/08 05:56:43;;;;;;;13.60;7.15;;;-2.40;99.90;;;;;;5155745;27;20580;-77
2023/03/08 05:59:09;;;;;;;12.32;7.10;;;-2.30;99.90;;;;;;5155740;27;20046;-77
2023/03/08 06:01:34;;;;;;;11.17;7.70;;;-2.30;99.90;;;;;;5156213;27;20096;-77
2023/03/08 06:04:00;;;;;;;14.90;7.63;;;-2.30;99.90;;;;;;5155560;27;20385;-77
2023/03/08 06:06:26;;;;;;;11.52;7.13;;;-2.20;99.90;;;;;;5155265;27;20068;-77
2023/03/08 06:08:52;;;;;;;10.77;7.03;;;-2.30;99.90;;;;;;5155248;27;20170;-79
2023/03/08 06:11:19;;;;;;;11.73;7.65;;;-2.20;99.90;;;;;;5155651;27;20306;-77
2023/03/08 06:13:44;;;;;;;13.45;7.63;;;-2.20;99.90;;;;;;5159256;27;20069;-77
2023/03/08 06:16:10;;;;;;;9.43;7.40;;;-2.30;99.90;;;;;;5159576;27;20462;-78
2023/03/08 06:18:37;;;;;;;9.82;7.38;;;-2.10;99.90;;;;;;5159110;27;20039;-79
2023/03/08 06:21:06;;;;;;;13.75;8.02;;;-1.00;99.90;;;;;;5140431;27;20083;-79
2023/03/08 06:23:33;;;;;;;11.88;8.30;;;-2.10;99.90;;;;;;5158878;27;20054;-79
2023/03/08 06:25:59;;;;;;;;;;;-2.00;99.90;;;;;;5159259;27;20110;-79
2023/03/08 06:28:26;;;;;;;10.40;7.57;;;-1.30;99.90;;;;;;5141260;27;20319;-81
2023/03/08 06:30:52;;;;;;;16.42;8.40;;;-2.00;99.90;;;;;;5140476;27;20039;-79
2023/03/08 06:33:19;;;;;;;10.73;7.68;;;-2.00;99.90;;;;;;5158864;27;20476;-80
2023/03/08 06:36:06;;;;;;;14.07;7.63;;;-1.90;99.90;;;;;;5158716;27;20046;-78
2023/03/08 06:38:34;;;;;;;12.88;7.43;;;-1.80;99.90;;;;;;5158680;27;20078;-78
2023/03/08 06:41:01;;;;;;;13.70;7.53;;;-1.60;99.90;;;;;;5158568;27;20042;-78
2023/03/08 06:43:27;;;;;;;10.15;7.47;;;-1.90;99.90;;;;;;5139985;27;20490;-79
2023/03/08 06:45:53;;;;;;;12.48;7.75;;;-1.90;99.90;;;;;;5158404;27;20550;-77
2023/03/08 06:48:19;;;;;;;12.60;7.65;;;-1.90;99.90;;;;;;5158649;27;20050;-78
2023/03/08 06:50:45;;;;;;;11.73;7.27;;;-1.90;99.90;;;;;;5158368;27;20058;-77
2023/03/08 06:53:11;;;;;;;13.73;7.63;;;-1.90;99.90;;;;;;5158328;27;20046;-78
2023/03/08 06:55:38;;;;;;;11.80;7.53;;;-1.90;99.90;;;;;;5158315;27;20046;-77
2023/03/08 06:58:04;;;;;;;11.15;7.80;;;-1.90;99.90;;;;;;5158774;27;20454;-77
2023/03/08 07:00:30;;;;;;;11.02;8.13;;;-1.90;99.90;;;;;;5158275;27;20074;-79
2023/03/08 07:02:55;;;;;;;14.68;7.95;;;-1.90;99.90;;;;;;5158162;27;20507;-78
2023/03/08 07:05:21;;;;;;;15.43;9.25;;;-1.70;99.90;;;;;;5158098;27;20082;-77
2023/03/08 07:07:47;;;;;;;12.15;8.85;;;-1.80;99.90;;;;;;5158059;27;20075;-77
2023/03/08 07:10:13;;;;;;;13.40;9.40;;;-1.70;99.90;;;;;;5158034;27;20125;-79
2023/03/08 07:12:42;;;;;;;14.88;9.70;;;-1.70;99.90;;;;;;5157954;27;20042;-77
2023/03/08 07:15:09;;;;;;;15.18;10.63;;;-1.60;99.90;;;;;;5158255;27;20086;-75
2023/03/08 07:17:35;;;;;;;15.50;10.65;;;-1.60;99.90;;;;;;5157887;27;20087;-77
2023/03/08 07:20:04;;;;;;;15.13;11.88;;;-1.50;99.90;;;;;;5157892;27;20042;-76
2023/03/08 07:22:30;;;;;;;20.20;12.43;;;-1.40;99.90;;;;;;5138766;27;20477;-78
2023/03/08 07:24:56;;;;;;;19.05;12.93;;;-1.10;99.90;;;;;;5157974;27;20054;-77
2023/03/08 07:27:22;;;;;;;22.15;12.18;;;-1.30;99.90;;;;;;5157869;27;20042;-75
2023/03/08 07:29:48;;;;;;;19.43;12.80;;;-1.20;99.90;;;;;;5156662;27;20042;-75
2023/03/08 07:32:13;;;;;;;20.13;11.43;;;-1.20;99.90;;;;;;5156407;27;20053;-76
2023/03/08 07:34:39;;;;;;;19.15;11.95;;;-1.10;99.90;;;;;;5157163;27;20124;-77
2023/03/08 07:37:14;;;;;;;21.02;12.68;;;-1.10;99.90;;;;;;5157495;27;20089;-75
2023/03/08 07:39:39;;;;;;;21.20;13.27;;;-1.00;99.90;;;;;;5156404;27;20046;-75
2023/03/08 07:42:05;;;;;;;24.02;14.07;;;-0.90;99.90;;;;;;5157455;27;20490;-75
2023/03/08 07:44:31;;;;;;;25.55;14.55;;;0.20;99.90;;;;;;5157805;27;20043;-75
2023/03/08 07:46:56;;;;;;;25.13;14.35;;;-0.80;99.90;;;;;;5157341;27;20041;-75
2023/03/08 07:49:22;;;;;;;28.70;14.43;;;-0.80;99.90;;;;;;5157337;27;20482;-74
2023/03/08 07:51:49;;;;;;;37.47;16.70;;;-0.80;99.90;;;;;;5157738;27;20145;-75
2023/03/08 07:54:15;;;;;;;36.25;16.02;;;-0.90;99.90;;;;;;5157175;27;20043;-75
2023/03/08 07:56:41;;;;;;;33.05;15.60;;;-1.00;99.90;;;;;;5157169;27;20477;-75
2023/03/08 07:59:07;;;;;;;28.27;15.45;;;-1.00;99.90;;;;;;5156906;27;20039;-75
2023/03/08 08:01:33;;;;;;;29.95;16.60;;;-1.00;99.90;;;;;;5157003;27;20042;-75
2023/03/08 08:03:59;;;;;;;34.80;15.77;;;-0.30;99.90;;;;;;5156875;27;20431;-75
2023/03/08 08:06:26;;;;;;;45.73;16.17;;;-0.90;99.90;;;;;;5156868;27;20050;-75
2023/03/08 08:08:53;;;;;;;35.45;16.20;;;-0.20;99.90;;;;;;5156809;27;20774;-74
2023/03/08 08:11:19;;;;;;;36.35;17.60;;;-0.90;99.90;;;;;;5156729;27;20039;-75
2023/03/08 08:13:45;;;;;;;34.42;15.77;;;-0.80;99.90;;;;;;5156799;27;20159;-75
2023/03/08 08:16:13;;;;;;;40.53;17.50;;;-0.70;99.90;;;;;;5138063;27;20043;-75
2023/03/08 08:18:39;;;;;;;42.63;15.93;;;-0.80;99.90;;;;;;5156634;27;20053;-75
2023/03/08 08:21:08;;;;;;;37.72;16.33;;;-0.90;99.90;;;;;;5156541;27;20038;-75
2023/03/08 08:23:34;;;;;;;42.17;15.60;;;-0.90;99.90;;;;;;5156515;27;20038;-75
2023/03/08 08:26:03;;;;;;;29.40;14.30;;;-0.90;99.90;;;;;;5156294;27;20084;-75
2023/03/08 08:28:29;;;;;;;34.30;16.77;;;-0.90;99.90;;;;;;5156797;27;20047;-75
2023/03/08 08:30:57;;;;;;;40.83;14.65;;;-0.90;99.90;;;;;;5156211;27;20038;-74
2023/03/08 08:33:23;;;;;;;34.85;14.95;;;-0.80;99.90;;;;;;5156299;27;20424;-75
2023/03/08 08:35:48;;;;;;;34.65;14.52;;;-0.80;99.90;;;;;;5155802;27;20047;-74
2023/03/08 08:38:14;;;;;;;33.47;14.27;;;-0.30;99.90;;;;;;5153331;27;20065;-74
2023/03/08 08:40:39;;;;;;;31.08;14.27;;;-0.70;99.90;;;;;;5117209;27;20092;-74
2023/03/08 08:43:05;;;;;;;33.75;17.15;;;-0.70;99.90;;;;;;5134563;27;20035;-78
2023/03/08 08:45:30;;;;;;;40.22;15.27;;;-0.70;99.90;;;;;;5135292;27;20043;-80
2023/03/08 08:47:56;;;;;;;24.85;13.45;;;-1.00;99.90;;;;;;5116809;27;20126;-76
2023/03/08 08:50:22;;;;;;;32.00;13.73;;;-0.60;99.90;;;;;;5134977;27;20058;-77
2023/03/08 08:52:47;;;;;;;40.50;14.25;;;-0.60;99.90;;;;;;5117050;27;20492;-74
2023/03/08 08:55:13;;;;;;;37.05;16.67;;;-0.50;99.90;;;;;;5135092;27;20047;-75
2023/03/08 08:57:38;;;;;;;36.90;16.08;;;-0.50;99.90;;;;;;5135002;27;20043;-76
2023/03/08 09:00:07;;;;;;;38.80;16.10;;;-0.40;99.90;;;;;;5135124;27;20051;-75
2023/03/08 09:02:33;;;;;;;28.42;13.10;;;-0.40;99.90;;;;;;5134936;27;20049;-75
2023/03/08 09:04:58;;;;;;;37.33;13.95;;;-0.40;99.90;;;;;;5116429;27;20494;-75
2023/03/08 09:07:24;;;;;;;27.10;13.85;;;-0.40;99.90;;;;;;5134821;27;20043;-76
2023/03/08 09:09:52;;;;;;;50.22;14.63;;;-0.30;99.90;;;;;;5134782;27;20051;-83
2023/03/08 09:12:19;;;;;;;29.58;13.73;;;-0.30;99.90;;;;;;5134619;27;20094;-77
2023/03/08 09:14:46;;;;;;;30.02;14.38;;;-0.20;99.90;;;;;;5134479;27;20482;-75
2023/03/08 09:17:11;;;;;;;31.33;14.90;;;-0.20;99.90;;;;;;5116740;27;20138;-76
2023/03/08 09:19:37;;;;;;;37.40;15.82;;;-0.10;99.90;;;;;;5134326;27;20363;-81
2023/03/08 09:22:03;;;;;;;34.75;16.17;;;-0.10;99.90;;;;;;5134583;27;20466;-76
2023/03/08 09:24:28;;;;;;;37.22;16.58;;;0.00;99.90;;;;;;5134572;27;20073;-76
2023/03/08 09:26:54;;;;;;;32.60;15.52;;;0.00;99.90;;;;;;5134569;27;20053;-75
2023/03/08 09:29:20;;;;;;;28.15;14.43;;;0.10;99.90;;;;;;5142521;27;20050;-78
2023/03/08 09:31:45;;;;;;;25.95;12.85;;;0.20;99.90;;;;;;5154857;27;20401;-80
2023/03/08 09:34:13;;;;;;;24.92;12.40;;;0.30;99.90;;;;;;5154870;27;20053;-77
2023/03/08 09:36:40;;;;;;;29.30;14.60;;;1.00;99.90;;;;;;5154994;27;20054;-77
2023/03/08 09:39:10;;;;;;;33.33;16.45;;;0.40;99.90;;;;;;5154893;27;20500;-76
2023/03/08 09:41:47;;;;;;;32.00;15.35;;;0.40;99.90;;;;;;5154782;27;20043;-77
2023/03/08 09:44:47;;;;;;;32.30;15.07;;;0.50;99.90;;;;;;5154808;27;20031;-77
2023/03/08 09:47:26;;;;;;;43.60;17.85;;;0.60;99.90;;;;;;5156073;27;20045;-75
2023/03/08 09:49:58;;;;;;;37.40;15.90;;;0.60;99.90;;;;;;5159165;27;20145;-76
2023/03/08 09:52:29;;;;;;;40.25;17.50;;;0.60;99.90;;;;;;5159152;27;20089;-75
2023/03/08 09:54:57;;;;;;;36.75;15.70;;;0.70;99.90;;;;;;5158990;27;20047;-77
2023/03/08 09:57:29;;;;;;;35.15;15.57;;;0.80;99.90;;;;;;5158877;27;20042;-80
2023/03/08 09:59:57;;;;;;;34.22;14.85;;;0.80;99.90;;;;;;5158297;27;20060;-76
2023/03/08 10:02:52;;;;;;;34.08;15.57;;;0.80;99.90;;;;;;5158998;27;20043;-76
2023/03/08 10:05:36;;;;;;;30.95;14.27;;;0.80;99.90;;;;;;5158908;27;20051;-76
2023/03/08 10:08:14;;;;;;;28.35;13.50;;;0.90;99.90;;;;;;5140557;27;20049;-76
2023/03/08 10:11:19;;;;;;;27.08;12.60;;;0.90;99.90;;;;;;5158755;27;20084;-72
2023/03/08 10:13:52;;;;;;;28.63;13.25;;;2.20;99.90;;;;;;5157640;27;20126;-75
2023/03/08 10:16:28;;;;;;;26.98;13.05;;;1.00;99.90;;;;;;5158590;27;20130;-77
2023/03/08 10:18:56;;;;;;;27.80;13.93;;;1.00;99.90;;;;;;5158899;27;20089;-75
2023/03/08 10:21:24;;;;;;;31.73;15.38;;;1.10;99.90;;;;;;5158830;27;20043;-76
2023/03/08 10:24:29;;;;;;;37.25;16.88;;;1.00;99.90;;;;;;5158577;27;20039;-79
2023/03/08 10:27:08;;;;;;;37.40;18.10;;;1.00;99.90;;;;;;5157159;27;20055;-75
2023/03/08 10:29:34;;;;;;;35.05;15.75;;;1.10;99.90;;;;;;5158756;27;20095;-75
2023/03/08 10:31:59;;;;;;;31.90;15.15;;;1.00;99.90;;;;;;5158690;27;20042;-75
2023/03/08 10:34:31;;;;;;;30.85;13.77;;;1.10;99.90;;;;;;5158585;27;20081;-75
2023/03/08 10:37:02;;;;;;;30.30;13.52;;;1.20;99.90;;;;;;5158514;27;20080;-75
2023/03/08 10:39:28;;;;;;;32.00;14.35;;;1.20;99.90;;;;;;5158324;27;20084;-75
2023/03/08 10:42:15;;;;;;;30.83;14.88;;;1.30;99.90;;;;;;5158444;27;20042;-75
2023/03/08 10:44:52;;;;;;;28.70;14.05;;;1.30;99.90;;;;;;5157684;27;20061;-75
2023/03/08 10:47:32;;;;;;;26.83;13.25;;;1.40;99.90;;;;;;5157930;27;20047;-75
2023/03/08 10:50:04;;;;;;;33.85;16.67;;;1.60;99.90;;;;;;5156392;27;20059;-79
2023/03/08 10:52:30;;;;;;;33.67;16.08;;;1.70;99.90;;;;;;5157968;27;20548;-77
2023/03/08 10:55:10;;;;;;;35.55;15.07;;;1.70;99.90;;;;;;5158018;27;20092;-75
2023/03/08 10:57:38;;;;;;;30.58;14.70;;;1.80;99.90;;;;;;5157769;27;20047;-76
2023/03/08 11:00:23;;;;;;;29.80;14.80;;;2.00;99.90;;;;;;5158375;27;20058;-77
2023/03/08 11:02:49;;;;;;;27.67;14.10;;;2.10;99.90;;;;;;5158276;27;20046;-78
2023/03/08 11:05:25;;;;;;;23.67;11.80;;;2.20;99.90;;;;;;5158037;27;20065;-76
2023/03/08 11:07:58;;;;;;;20.45;11.40;;;2.20;99.90;;;;;;5157850;27;20065;-77
2023/03/08 11:10:26;;;;;;;21.92;12.07;;;2.30;99.90;;;;;;5158422;27;20035;-78
2023/03/08 11:13:12;;;;;;;20.95;11.18;;;2.40;99.90;;;;;;5157846;27;20047;-79
2023/03/08 11:15:41;;;;;;;22.60;11.48;;;2.50;99.90;;;;;;5157857;27;20046;-78
2023/03/08 11:18:26;;;;;;;21.42;11.50;;;3.00;99.90;;;;;;5157701;27;20446;-77
2023/03/08 11:20:59;;;;;;;19.52;10.30;;;2.60;99.90;;;;;;5157643;27;20502;-79
2023/03/08 11:23:43;;;;;;;21.33;10.70;;;2.80;99.90;;;;;;5157487;27;20103;-78
2023/03/08 11:26:32;;;;;;;30.85;13.63;;;2.80;99.90;;;;;;5139189;27;20050;-76
2023/03/08 11:29:07;;;;;;;29.50;13.82;;;2.80;99.90;;;;;;5094274;27;20137;-76
2023/03/08 11:32:03;;;;;;;35.90;14.75;;;2.80;99.90;;;;;;5155957;27;20054;-76
2023/03/08 11:34:59;;;;;;;35.03;15.50;;;2.90;99.90;;;;;;5156252;27;20050;-74
2023/03/08 11:37:46;;;;;;;41.45;17.95;;;2.90;99.90;;;;;;5156241;27;20057;-78
2023/03/08 11:40:38;;;;;;;43.72;18.17;;;2.90;99.90;;;;;;5157076;27;20542;-77
2023/03/08 11:43:07;;;;;;;38.42;16.17;;;2.90;99.90;;;;;;5157546;27;20046;-77
2023/03/08 11:45:52;;;;;;;41.72;17.13;;;3.00;99.90;;;;;;5157197;27;20047;-82
2023/03/08 11:48:39;;;;;;;45.00;18.60;;;3.00;99.90;;;;;;5157394;27;20055;-81
2023/03/08 11:51:20;;;;;;;45.42;18.92;;;3.00;99.90;;;;;;5138035;27;20501;-82
2023/03/08 11:54:02;;;;;;;37.10;16.30;;;3.10;99.90;;;;;;5157187;27;20049;-78
2023/03/08 11:56:42;;;;;;;31.70;15.05;;;3.10;99.90;;;;;;5156684;27;20489;-80
2023/03/08 11:59:24;;;;;;;32.33;15.07;;;3.20;99.90;;;;;;5157013;27;20043;-78
2023/03/08 12:02:09;;;;;;;32.28;15.48;;;3.30;99.90;;;;;;5156957;27;20049;-77
2023/03/08 12:05:00;;;;;;;35.83;15.18;;;3.30;99.90;;;;;;5156824;27;20046;-78
2023/03/08 12:07:35;;;;;;;29.23;14.13;;;3.30;99.90;;;;;;5156583;27;20041;-78
2023/03/08 12:10:19;;;;;;;28.40;14.02;;;3.30;99.90;;;;;;5155919;27;20523;-79
2023/03/08 12:12:57;;;;;;;29.95;13.75;;;3.40;99.90;;;;;;5156807;27;20060;-78
2023/03/08 12:15:48;;;;;;;;;;;3.30;99.90;;;;;;5156890;27;20049;-78
2023/03/08 12:18:26;;;;;;;32.67;13.90;;;3.30;99.90;;;;;;5114983;27;19926;-79
2023/03/08 12:21:03;;;;;;;29.40;13.27;;;3.30;99.90;;;;;;5154345;27;20078;-78
2023/03/08 12:23:33;;;;;;;28.00;13.82;;;3.30;99.90;;;;;;5154277;27;20035;-79
2023/03/08 12:26:16;;;;;;;30.13;13.75;;;3.30;99.90;;;;;;5154294;27;20134;-78
2023/03/08 12:28:49;;;;;;;29.60;13.13;;;3.40;99.90;;;;;;5154154;27;20047;-79
2023/03/08 12:31:28;;;;;;;31.40;14.68;;;3.50;99.90;;;;;;5135720;27;20043;-78
2023/03/08 12:33:56;;;;;;;32.67;15.38;;;3.50;99.90;;;;;;5155734;27;20042;-79
2023/03/08 12:36:36;;;;;;;24.13;11.85;;;3.50;99.90;;;;;;5156052;27;20134;-79
2023/03/08 12:39:22;;;;;;;25.90;12.55;;;3.40;99.90;;;;;;5156225;27;20045;-79
2023/03/08 12:41:59;;;;;;;22.05;9.70;;;3.50;99.90;;;;;;5155885;27;20080;-78
2023/03/08 12:44:27;;;;;;;23.85;10.35;;;3.50;99.90;;;;;;5155998;27;20046;-78
2023/03/08 12:47:01;;;;;;;24.98;10.55;;;3.60;99.90;;;;;;5156021;27;20057;-78
2023/03/08 12:49:36;;;;;;;26.33;11.05;;;3.70;99.90;;;;;;5155934;27;20038;-78